Terminal Aerodrome Forecast
Issued by NWS

Home | Current Version | Previous Version | Text Only | Print | Product List | Glossary On
Versions: 1 2 3 4 5 6 7 8 9 10 11 12 13 14
657
FTUS45 KABQ 301720
TAFSAF
TAF
KSAF 301720Z 3018/0118 25009KT P6SM FEW050
     FM302300 28010KT P6SM SCT070
     FM010200 35006KT P6SM BKN100
     FM011200 36011KT P6SM SCT100
     FM011700 33008KT P6SM FEW120=

USA.gov is the U.S. government's official web portal to all federal, state and local government web resources and services.